Armstrong, Iowa
Current Conditions -  °F | °C
As of 11:52 PM on Wednesday 26 Nov 2014 (Local Time) from KEST Reporting Station
Few Clouds Few Clouds  
Wind Chill: -12°   Ceiling: Unl
Heat Index:   Visibility: 10mi
Dew Point: -2°   Wind: 12mph
Humidity: 76%   Direction: 320°NW
Pressure: 30.42"   Gusts: NA
Location:  43.4°N, 94.48°W
Report Text: KEST 270552Z AUTO 32010KT 10SM FEW075 M16/M19 A3042 RMK AO2 SLP326 60000 T11561189 11100 21156 410281156 53020
Loading
Personal Weather Stations






























Interactive Weather Map New forecast layout! Learn more

10-Day Weather Forecast

Advertisements
Track Severe Weather on mobile